createdAt,value
2019-01-19T00:01:13.253Z,95.70
2019-01-19T00:06:31.601Z,95.30
2019-01-19T00:12:17.138Z,95.90
2019-01-19T00:17:34.407Z,95.90
2019-01-19T00:23:15.572Z,95.90
2019-01-19T00:28:49.080Z,95.90
2019-01-19T00:34:46.580Z,95.90
2019-01-19T00:40:45.684Z,95.90
2019-01-19T00:46:38.557Z,95.90
2019-01-19T00:52:20.144Z,95.70
2019-01-19T00:58:04.812Z,95.40
2019-01-19T01:03:36.462Z,95.60
2019-01-19T01:09:19.111Z,95.80
2019-01-19T01:15:01.453Z,95.50
2019-01-19T01:20:50.410Z,95.40
2019-01-19T01:26:51.601Z,95.70
2019-01-19T01:32:50.735Z,95.30
2019-01-19T01:38:02.643Z,95.30
2019-01-19T01:43:33.076Z,95.10
2019-01-19T01:49:18.695Z,95.50
2019-01-19T01:54:50.850Z,95.60
2019-01-19T02:00:28.799Z,95.80
2019-01-19T02:06:15.678Z,95.90
2019-01-19T02:12:10.356Z,95.80
2019-01-19T02:17:50.991Z,95.80
2019-01-19T02:23:31.085Z,95.40
2019-01-19T02:29:21.615Z,95.40
2019-01-19T02:35:08.347Z,95.40
2019-01-19T02:40:51.285Z,95.80
2019-01-19T02:46:32.789Z,95.80
2019-01-19T02:52:15.428Z,95.70
2019-01-19T02:58:05.196Z,95.40
2019-01-19T03:03:42.301Z,95.80
2019-01-19T03:09:12.768Z,95.70
2019-01-19T03:14:28.814Z,95.30
2019-01-19T03:20:24.308Z,95.50
2019-01-19T03:26:07.044Z,95.30
2019-01-19T03:31:55.657Z,95.70
2019-01-19T03:37:21.928Z,95.10
2019-01-19T03:42:52.655Z,95.60
2019-01-19T03:48:24.287Z,95.50
2019-01-19T03:54:08.409Z,95.60
2019-01-19T03:59:57.436Z,95.40
2019-01-19T04:05:25.398Z,95.60
2019-01-19T04:11:05.576Z,95.60
2019-01-19T04:17:07.863Z,95.50
2019-01-19T04:22:43.932Z,95.70
2019-01-19T04:27:50.020Z,95.70
2019-01-19T04:32:56.058Z,95.60
2019-01-19T04:38:02.338Z,95.70
2019-01-19T04:43:08.441Z,95.80
2019-01-19T04:48:15.261Z,95.70
2019-01-19T04:53:21.265Z,95.70
2019-01-19T04:58:27.375Z,95.80
2019-01-19T05:03:33.418Z,95.90
2019-01-19T05:08:39.603Z,95.90
2019-01-19T05:13:45.734Z,95.60
2019-01-19T05:18:51.873Z,95.70
2019-01-19T05:23:57.862Z,95.80
2019-01-19T05:29:03.907Z,95.70
2019-01-19T05:34:09.993Z,95.50
2019-01-19T05:39:16.147Z,95.70
2019-01-19T05:44:22.157Z,95.70
2019-01-19T05:49:28.234Z,96.00
2019-01-19T05:54:34.324Z,95.70
2019-01-19T05:59:40.549Z,95.80
2019-01-19T06:04:46.770Z,95.70
2019-01-19T06:09:52.753Z,95.60
2019-01-19T06:14:58.818Z,95.90
2019-01-19T06:20:05.781Z,95.80
2019-01-19T06:25:12.799Z,95.70
2019-01-19T06:30:20.921Z,95.50
2019-01-19T06:35:27.063Z,95.30
2019-01-19T06:40:33.172Z,95.20
2019-01-19T06:45:39.260Z,95.30
2019-01-19T06:50:45.323Z,95.10
2019-01-19T06:55:51.484Z,95.20
2019-01-19T07:00:57.657Z,95.40
2019-01-19T07:06:03.733Z,95.40
2019-01-19T07:11:09.796Z,95.20
2019-01-19T07:16:15.977Z,95.00
2019-01-19T07:21:22.148Z,95.30
2019-01-19T07:26:28.435Z,95.10
2019-01-19T07:31:34.805Z,95.20
2019-01-19T07:36:40.888Z,95.10
2019-01-19T07:41:47.006Z,95.00
2019-01-19T07:46:56.224Z,94.90
2019-01-19T07:52:01.182Z,94.70
2019-01-19T07:57:07.281Z,94.50
2019-01-19T08:02:13.321Z,94.40
2019-01-19T08:07:19.504Z,94.30
2019-01-19T08:12:25.569Z,94.30
2019-01-19T08:17:31.883Z,94.20
2019-01-19T08:22:38.010Z,94.20
2019-01-19T08:27:44.228Z,93.70
2019-01-19T08:32:50.417Z,94.00
2019-01-19T08:37:56.527Z,93.60
2019-01-19T08:43:07.521Z,93.60
2019-01-19T08:48:13.847Z,93.40
2019-01-19T08:53:19.938Z,93.50
2019-01-19T08:58:26.075Z,93.50
2019-01-19T09:03:32.062Z,93.30
2019-01-19T09:08:38.306Z,93.10
2019-01-19T09:13:44.510Z,93.30
2019-01-19T09:18:50.678Z,93.10
2019-01-19T09:24:01.623Z,93.20
2019-01-19T09:29:07.729Z,92.80
2019-01-19T09:34:13.855Z,93.10
2019-01-19T09:39:19.903Z,93.00
2019-01-19T09:44:25.889Z,93.20
2019-01-19T09:49:31.931Z,92.20
2019-01-19T09:54:38.073Z,92.30
2019-01-19T09:59:44.288Z,92.60
2019-01-19T10:04:50.388Z,92.50
2019-01-19T10:09:56.458Z,92.60
2019-01-19T10:15:02.502Z,91.80
2019-01-19T10:20:11.388Z,91.80
2019-01-19T10:25:17.751Z,90.60
2019-01-19T10:30:25.476Z,91.10
2019-01-19T10:35:31.626Z,91.00
2019-01-19T10:40:37.808Z,91.30
2019-01-19T10:45:43.869Z,90.90
2019-01-19T10:50:49.871Z,91.50
2019-01-19T10:55:56.944Z,91.10
2019-01-19T11:01:03.134Z,91.50
2019-01-19T11:06:09.391Z,90.10
2019-01-19T11:11:15.588Z,90.50
2019-01-19T11:16:21.752Z,88.90
2019-01-19T11:21:27.841Z,86.50
2019-01-19T11:26:34.043Z,83.40
2019-01-19T11:31:40.197Z,83.30
2019-01-19T11:36:46.366Z,83.10
2019-01-19T11:41:52.453Z,79.90
2019-01-19T11:46:58.948Z,80.20
2019-01-19T11:52:05.079Z,78.40
2019-01-19T11:57:11.180Z,75.30
2019-01-19T12:02:17.222Z,75.50
2019-01-19T12:07:23.313Z,75.40
2019-01-19T12:12:29.473Z,75.60
2019-01-19T12:17:35.573Z,76.70
2019-01-19T12:22:41.752Z,78.40
2019-01-19T12:27:47.824Z,79.60
2019-01-19T12:32:54.015Z,78.80
2019-01-19T12:38:00.283Z,78.10
2019-01-19T12:43:09.748Z,81.50
2019-01-19T12:48:15.837Z,82.00
2019-01-19T12:53:21.883Z,77.40
2019-01-19T12:58:28.155Z,75.70
2019-01-19T13:03:34.256Z,80.40
2019-01-19T13:08:40.341Z,79.70
2019-01-19T13:13:48.785Z,78.00
2019-01-19T13:19:35.034Z,81.50
2019-01-19T13:25:24.552Z,81.10
2019-01-19T13:31:00.425Z,80.20
2019-01-19T13:37:20.566Z,82.30
2019-01-19T13:43:06.983Z,81.10
2019-01-19T13:49:03.886Z,85.70
2019-01-19T13:55:18.086Z,87.70
2019-01-19T14:01:04.759Z,87.80
2019-01-19T14:06:52.245Z,88.20
2019-01-19T14:12:45.472Z,87.90
2019-01-19T14:18:20.119Z,86.90
2019-01-19T14:23:45.484Z,86.00
2019-01-19T14:29:35.253Z,87.70
2019-01-19T14:35:09.998Z,87.70
2019-01-19T14:41:06.138Z,90.00
2019-01-19T14:46:59.286Z,90.60
2019-01-19T14:52:32.705Z,91.60
2019-01-19T14:57:56.255Z,92.20
2019-01-19T15:03:37.821Z,92.00
2019-01-19T15:09:10.601Z,92.30
2019-01-19T15:15:06.244Z,92.30
2019-01-19T15:20:59.312Z,93.00
2019-01-19T15:26:30.393Z,93.00
2019-01-19T15:32:24.092Z,92.80
2019-01-19T15:38:14.243Z,92.90
2019-01-19T15:44:22.404Z,93.40
2019-01-19T15:49:53.055Z,93.20
2019-01-19T15:55:36.586Z,93.80
2019-01-19T16:01:32.136Z,93.30
2019-01-19T16:07:03.848Z,92.70
2019-01-19T16:12:37.094Z,92.60
2019-01-19T16:18:26.842Z,93.00
2019-01-19T16:24:13.261Z,93.50
2019-01-19T16:30:09.309Z,93.80
2019-01-19T16:35:48.847Z,93.90
2019-01-19T16:41:31.602Z,94.00
2019-01-19T16:47:08.983Z,94.00
2019-01-19T16:52:27.836Z,93.80
2019-01-19T16:58:09.982Z,93.90
2019-01-19T17:03:41.221Z,93.80
2019-01-19T17:09:40.506Z,94.00
2019-01-19T17:15:22.925Z,94.00
2019-01-19T17:21:10.049Z,93.80
2019-01-19T17:26:41.609Z,94.50
2019-01-19T17:32:40.855Z,94.00
2019-01-19T17:38:34.839Z,94.30
2019-01-19T17:44:10.369Z,94.70
2019-01-19T17:49:45.441Z,95.20
2019-01-19T17:55:21.719Z,95.00
2019-01-19T18:00:58.614Z,94.70
2019-01-19T18:06:49.350Z,94.80
2019-01-19T18:12:39.875Z,95.10
2019-01-19T18:18:17.165Z,94.90
2019-01-19T18:24:10.055Z,94.80
2019-01-19T18:30:02.965Z,95.50
2019-01-19T18:35:46.762Z,95.30
2019-01-19T18:41:48.973Z,95.30
2019-01-19T18:47:17.251Z,95.20
2019-01-19T18:52:34.578Z,95.40
2019-01-19T18:58:21.096Z,95.70
2019-01-19T19:04:07.054Z,95.50
2019-01-19T19:09:47.709Z,95.80
2019-01-19T19:15:25.954Z,95.60
2019-01-19T19:21:09.814Z,95.80
2019-01-19T19:26:56.614Z,95.50
2019-01-19T19:32:46.340Z,95.40
2019-01-19T19:38:28.959Z,95.90
2019-01-19T19:44:11.797Z,95.80
2019-01-19T19:49:56.538Z,96.00
2019-01-19T19:55:00.624Z,96.10
2019-01-19T20:00:09.456Z,95.70
2019-01-19T20:05:15.815Z,95.90
2019-01-19T20:10:21.978Z,96.00
2019-01-19T20:15:28.063Z,95.70
2019-01-19T20:20:46.561Z,95.70
2019-01-19T20:25:52.678Z,95.70
2019-01-19T20:30:58.822Z,95.70
2019-01-19T20:36:04.927Z,95.70
2019-01-19T20:41:11.130Z,95.80
2019-01-19T20:46:18.316Z,95.90
2019-01-19T20:51:24.437Z,95.70
2019-01-19T20:56:30.465Z,95.70
2019-01-19T21:01:37.624Z,95.60
2019-01-19T21:06:43.746Z,95.70
2019-01-19T21:11:49.903Z,95.70
2019-01-19T21:16:56.040Z,95.70
2019-01-19T21:22:02.358Z,95.60
2019-01-19T21:27:08.600Z,95.60
2019-01-19T21:32:14.628Z,95.60
2019-01-19T21:37:20.904Z,95.40
2019-01-19T21:42:27.071Z,95.40
2019-01-19T21:47:33.465Z,95.50
2019-01-19T21:52:39.538Z,95.40
2019-01-19T21:57:45.518Z,95.30
2019-01-19T22:02:51.682Z,95.30
2019-01-19T22:07:57.770Z,95.40
2019-01-19T22:13:03.829Z,95.30
2019-01-19T22:18:10.050Z,95.50
2019-01-19T22:23:16.008Z,95.20
2019-01-19T22:28:22.130Z,95.40
2019-01-19T22:33:28.317Z,95.20
2019-01-19T22:38:34.432Z,95.50
2019-01-19T22:43:59.369Z,95.30
2019-01-19T22:49:16.089Z,95.20
2019-01-19T22:54:22.141Z,95.10
2019-01-19T22:59:28.404Z,95.10
2019-01-19T23:04:34.582Z,95.20
2019-01-19T23:09:40.662Z,95.10
2019-01-19T23:14:46.975Z,95.10
2019-01-19T23:19:53.225Z,95.00
2019-01-19T23:24:59.296Z,95.10
2019-01-19T23:30:07.944Z,95.20
2019-01-19T23:35:14.033Z,95.60
2019-01-19T23:40:20.095Z,95.10
2019-01-19T23:45:27.157Z,95.10
2019-01-19T23:50:33.328Z,95.00
2019-01-19T23:55:39.564Z,95.00
